Time;durP1;ratioP1;P1;durP2;ratioP2;P2;SDS_P1;SDS_P2;PMS_P1;PMS_P2;Temp;Humidity;BMP_temperature;BMP_pressure;BME280_temperature;BME280_humidity;BME280_pressure;Samples;Min_cycle;Max_cycle;Signal;HPM_P1;HPM_P2
2023/08/14 00:00:27;;;;;;;5.38;4.57;;;23.20;58.00;;;;;;5113994;28;20024;-66
2023/08/14 00:02:53;;;;;;;6.72;4.60;;;23.20;58.10;;;;;;5113843;28;20039;-67
2023/08/14 00:05:19;;;;;;;7.65;4.55;;;23.20;58.20;;;;;;5114122;28;20444;-67
2023/08/14 00:07:44;;;;;;;6.10;3.80;;;23.20;58.20;;;;;;5114093;28;20024;-66
2023/08/14 00:10:10;;;;;;;5.80;4.22;;;23.20;58.10;;;;;;5113556;28;20051;-67
2023/08/14 00:12:35;;;;;;;5.72;4.28;;;23.30;58.30;;;;;;5114038;28;20023;-66
2023/08/14 00:15:01;;;;;;;4.85;4.05;;;23.20;58.10;;;;;;5113925;28;20028;-67
2023/08/14 00:17:28;;;;;;;5.95;4.18;;;23.20;58.20;;;;;;5112215;28;20054;-67
2023/08/14 00:19:54;;;;;;;5.10;3.78;;;23.20;58.00;;;;;;5113914;28;20023;-66
2023/08/14 00:22:19;;;;;;;6.43;3.65;;;23.20;58.00;;;;;;5113664;28;20039;-66
2023/08/14 00:24:45;;;;;;;5.65;4.20;;;23.20;58.10;;;;;;5114029;28;20051;-66
2023/08/14 00:27:10;;;;;;;6.18;4.53;;;23.20;58.20;;;;;;5113589;28;20044;-66
2023/08/14 00:29:37;;;;;;;4.63;3.97;;;23.20;58.20;;;;;;5112481;28;20487;-65
2023/08/14 00:32:02;;;;;;;5.53;4.30;;;23.10;58.20;;;;;;5112189;28;20469;-67
2023/08/14 00:34:28;;;;;;;7.13;4.22;;;23.10;58.40;;;;;;5106002;28;20039;-65
2023/08/14 00:36:53;;;;;;;5.97;3.95;;;23.10;58.40;;;;;;5112469;28;20028;-65
2023/08/14 00:39:19;;;;;;;5.00;4.30;;;23.00;58.40;;;;;;5112655;28;20908;-66
2023/08/14 00:41:45;;;;;;;4.75;4.00;;;23.00;58.50;;;;;;5095576;28;20160;-66
2023/08/14 00:44:10;;;;;;;4.72;4.22;;;23.00;58.60;;;;;;5111912;28;20065;-66
2023/08/14 00:46:36;;;;;;;5.43;4.03;;;22.90;58.70;;;;;;5113271;28;20099;-66
2023/08/14 00:49:02;;;;;;;8.85;4.45;;;22.90;58.80;;;;;;5113418;28;20065;-66
2023/08/14 00:51:28;;;;;;;5.57;4.45;;;22.80;58.90;;;;;;5113419;28;20020;-65
2023/08/14 00:53:54;;;;;;;4.97;4.47;;;22.80;59.00;;;;;;5112214;28;20035;-67
2023/08/14 00:56:20;;;;;;;7.05;4.75;;;22.80;59.10;;;;;;5113255;28;20114;-67
2023/08/14 00:58:47;;;;;;;5.20;4.10;;;22.70;59.10;;;;;;5113594;28;20059;-66
2023/08/14 01:01:13;;;;;;;5.20;4.28;;;22.60;59.20;;;;;;5112431;28;20089;-67
2023/08/14 01:03:39;;;;;;;5.93;4.13;;;22.60;59.20;;;;;;5113412;28;20484;-67
2023/08/14 01:06:05;;;;;;;4.30;3.70;;;22.70;59.20;;;;;;5113031;28;20027;-67
2023/08/14 01:08:32;;;;;;;4.55;3.70;;;22.70;59.20;;;;;;5112070;28;20115;-66
2023/08/14 01:11:00;;;;;;;4.95;3.42;;;22.80;59.20;;;;;;5113098;28;20511;-67
2023/08/14 01:13:47;;;;;;;3.90;3.28;;;22.80;59.10;;;;;;5111297;28;20431;-67
2023/08/14 01:16:19;;;;;;;4.20;3.60;;;22.80;59.00;;;;;;5102126;28;20032;-68
2023/08/14 01:18:46;;;;;;;4.90;3.80;;;22.80;58.90;;;;;;5113353;28;20024;-67
2023/08/14 01:21:15;;;;;;;4.40;3.60;;;22.90;58.90;;;;;;5112901;28;20035;-67
2023/08/14 01:23:49;;;;;;;5.10;4.00;;;22.90;58.90;;;;;;5113496;28;20465;-66
2023/08/14 01:26:15;;;;;;;4.95;4.20;;;22.90;58.80;;;;;;5112623;28;20032;-67
2023/08/14 01:28:41;;;;;;;4.70;3.80;;;22.70;58.80;;;;;;5113088;28;20024;-66
2023/08/14 01:31:06;;;;;;;4.95;4.13;;;22.70;59.10;;;;;;5112986;28;20032;-67
2023/08/14 01:33:32;;;;;;;5.82;4.90;;;22.60;59.10;;;;;;5113273;28;20063;-66
2023/08/14 01:36:26;;;;;;;6.78;4.57;;;22.50;59.50;;;;;;5113164;28;20463;-66
2023/08/14 01:39:09;;;;;;;5.00;4.13;;;22.30;59.70;;;;;;5113277;28;20106;-66
2023/08/14 01:42:25;;;;;;;4.47;3.85;;;22.30;59.90;;;;;;5111956;28;20024;-66
2023/08/14 01:44:58;;;;;;;4.22;3.50;;;22.30;60.20;;;;;;5106090;28;20039;-66
2023/08/14 01:47:25;;;;;;;5.40;3.63;;;22.40;59.90;;;;;;5112769;28;20022;-66
2023/08/14 01:49:53;;;;;;;4.97;3.88;;;22.40;59.80;;;;;;5113325;28;20032;-66
2023/08/14 01:52:18;;;;;;;4.90;3.60;;;22.50;59.80;;;;;;5116290;28;20143;-66
2023/08/14 01:54:44;;;;;;;6.38;4.00;;;22.50;59.80;;;;;;5116528;28;20060;-66
2023/08/14 01:57:09;;;;;;;4.72;3.47;;;22.60;59.90;;;;;;5116288;28;20038;-66
2023/08/14 01:59:44;;;;;;;4.93;3.90;;;22.60;59.70;;;;;;5115167;28;20111;-66
2023/08/14 02:02:12;;;;;;;4.07;3.38;;;22.60;59.60;;;;;;5115242;28;20028;-66
2023/08/14 02:04:38;;;;;;;4.38;3.53;;;22.70;59.40;;;;;;5110134;28;20069;-66
2023/08/14 02:07:05;;;;;;;5.30;4.30;;;22.70;59.30;;;;;;5116076;28;20474;-67
2023/08/14 02:09:34;;;;;;;5.38;3.90;;;22.80;59.30;;;;;;5116129;28;20050;-66
2023/08/14 02:12:00;;;;;;;5.72;3.88;;;22.70;59.20;;;;;;5116151;28;20058;-68
2023/08/14 02:14:26;;;;;;;7.50;3.75;;;22.60;59.30;;;;;;5115110;28;20464;-66
2023/08/14 02:16:51;;;;;;;5.70;3.85;;;22.60;59.40;;;;;;5116818;28;20032;-66
2023/08/14 02:19:17;;;;;;;4.15;3.67;;;22.60;59.50;;;;;;5114583;28;20024;-66
2023/08/14 02:21:43;;;;;;;4.15;3.50;;;22.60;59.50;;;;;;5114950;28;20024;-66
2023/08/14 02:24:08;;;;;;;3.78;3.20;;;22.60;59.50;;;;;;5115757;28;20103;-67
2023/08/14 02:26:34;;;;;;;5.80;3.45;;;22.60;59.40;;;;;;5115905;28;20101;-66
2023/08/14 02:29:00;;;;;;;5.10;3.83;;;22.60;59.20;;;;;;5115906;28;20173;-68
2023/08/14 02:31:25;;;;;;;4.43;3.67;;;22.60;59.20;;;;;;5114714;28;20464;-66
2023/08/14 02:33:57;;;;;;;5.07;4.00;;;22.50;59.30;;;;;;5115786;28;20054;-66
2023/08/14 02:36:23;;;;;;;4.10;3.65;;;22.50;59.40;;;;;;5114369;28;20489;-66
2023/08/14 02:38:48;;;;;;;4.65;3.83;;;22.50;59.50;;;;;;5115787;28;20022;-65
2023/08/14 02:41:14;;;;;;;5.60;3.90;;;22.50;59.50;;;;;;5115345;28;20031;-66
2023/08/14 02:43:40;;;;;;;4.80;3.80;;;22.40;59.60;;;;;;5116116;28;20031;-65
2023/08/14 02:46:05;;;;;;;5.85;3.97;;;22.30;59.80;;;;;;5115546;28;20384;-66
2023/08/14 02:48:31;;;;;;;5.65;4.40;;;22.30;59.80;;;;;;5115748;28;20525;-66
2023/08/14 02:50:57;;;;;;;5.20;4.40;;;22.30;59.80;;;;;;5115704;28;20465;-66
2023/08/14 02:53:22;;;;;;;4.68;4.07;;;22.20;59.80;;;;;;5115074;28;20040;-66
2023/08/14 02:55:52;;;;;;;4.93;4.00;;;22.20;59.90;;;;;;5115454;28;20028;-66
2023/08/14 02:58:18;;;;;;;5.00;4.13;;;22.20;60.00;;;;;;5115515;28;20035;-66
2023/08/14 03:00:47;;;;;;;5.28;3.90;;;22.10;60.00;;;;;;5114204;28;20450;-66
2023/08/14 03:03:13;;;;;;;6.53;4.32;;;22.10;60.20;;;;;;5114257;28;20031;-67
2023/08/14 03:05:40;;;;;;;4.85;3.80;;;22.10;60.20;;;;;;5113953;28;20072;-66
2023/08/14 03:08:05;;;;;;;4.18;3.70;;;22.10;60.10;;;;;;5113813;28;20039;-66
2023/08/14 03:10:31;;;;;;;4.78;4.15;;;22.10;60.10;;;;;;5115097;28;20048;-66
2023/08/14 03:12:57;;;;;;;5.00;3.75;;;22.00;60.20;;;;;;5115317;28;20032;-66
2023/08/14 03:15:23;;;;;;;7.07;4.38;;;22.00;60.20;;;;;;5114860;28;20149;-66
2023/08/14 03:17:49;;;;;;;7.80;4.00;;;22.10;60.20;;;;;;5115024;28;20102;-66
2023/08/14 03:20:15;;;;;;;6.50;4.72;;;22.10;60.20;;;;;;5114424;28;20035;-67
2023/08/14 03:22:41;;;;;;;6.15;4.10;;;22.10;60.20;;;;;;5115217;28;20462;-66
2023/08/14 03:25:07;;;;;;;4.72;3.78;;;22.10;60.10;;;;;;5114488;28;20036;-66
2023/08/14 03:27:33;;;;;;;4.88;3.60;;;22.20;60.00;;;;;;5115007;28;20118;-66
2023/08/14 03:29:58;;;;;;;4.95;3.90;;;22.30;60.00;;;;;;5114809;28;20525;-68
2023/08/14 03:32:24;;;;;;;6.18;3.38;;;22.40;59.90;;;;;;5114651;28;20020;-66
2023/08/14 03:34:51;;;;;;;5.22;3.70;;;22.40;59.70;;;;;;5114689;28;20031;-66
2023/08/14 03:37:16;;;;;;;4.13;3.38;;;22.50;59.70;;;;;;5114312;28;20140;-67
2023/08/14 03:39:42;;;;;;;4.75;3.70;;;22.50;59.50;;;;;;5114603;28;20060;-66
2023/08/14 03:42:08;;;;;;;4.20;3.75;;;22.50;59.40;;;;;;5114103;28;20073;-67
2023/08/14 03:44:33;;;;;;;4.78;3.83;;;22.60;59.40;;;;;;5114789;28;20027;-66
2023/08/14 03:46:59;;;;;;;4.65;3.47;;;22.60;59.20;;;;;;5114396;28;20028;-69
2023/08/14 03:49:24;;;;;;;3.88;3.47;;;22.60;59.20;;;;;;5114299;28;20077;-66
2023/08/14 03:51:50;;;;;;;5.03;3.80;;;22.70;59.20;;;;;;5114342;28;20077;-66
2023/08/14 03:54:15;;;;;;;4.22;3.42;;;22.70;59.20;;;;;;5114022;28;20354;-67
2023/08/14 03:56:41;;;;;;;4.53;3.88;;;22.70;58.90;;;;;;5114390;28;20032;-67
2023/08/14 03:59:07;;;;;;;3.80;3.25;;;22.80;58.90;;;;;;5112969;28;20055;-67
2023/08/14 04:01:34;;;;;;;5.40;3.80;;;22.70;58.80;;;;;;5114173;28;20026;-66
2023/08/14 04:03:59;;;;;;;4.88;3.85;;;22.70;58.90;;;;;;5114234;28;20106;-68
2023/08/14 04:06:25;;;;;;;5.43;3.80;;;22.70;58.90;;;;;;5113324;28;20107;-66
2023/08/14 04:08:51;;;;;;;5.07;3.97;;;22.80;59.00;;;;;;5114217;28;20031;-66
2023/08/14 04:11:16;;;;;;;7.05;4.00;;;22.80;58.90;;;;;;5113720;28;20052;-66
2023/08/14 04:13:42;;;;;;;4.43;3.80;;;22.80;58.80;;;;;;5113524;28;20413;-66
2023/08/14 04:16:08;;;;;;;4.30;3.20;;;22.80;58.80;;;;;;5113386;28;20039;-66
2023/08/14 04:18:34;;;;;;;5.78;4.53;;;22.90;58.80;;;;;;5113918;28;20096;-67
2023/08/14 04:20:59;;;;;;;4.85;3.90;;;22.90;58.70;;;;;;5112392;28;20496;-66
2023/08/14 04:23:26;;;;;;;4.97;4.22;;;23.00;58.60;;;;;;5112988;28;20137;-66
2023/08/14 04:25:52;;;;;;;4.57;3.78;;;23.00;58.60;;;;;;5113630;28;20032;-66
2023/08/14 04:28:18;;;;;;;5.93;3.85;;;23.00;58.60;;;;;;5113268;28;20035;-66
2023/08/14 04:30:44;;;;;;;5.43;3.70;;;23.00;58.60;;;;;;5113412;28;20034;-66
2023/08/14 04:33:10;;;;;;;4.28;3.88;;;23.00;58.70;;;;;;5113127;28;20362;-66
2023/08/14 04:35:37;;;;;;;4.22;3.80;;;23.10;58.70;;;;;;5113372;28;20080;-66
2023/08/14 04:38:04;;;;;;;5.03;3.50;;;23.10;58.70;;;;;;5112881;28;20023;-67
2023/08/14 04:40:30;;;;;;;4.30;3.58;;;23.20;58.70;;;;;;5113317;28;20070;-66
2023/08/14 04:42:55;;;;;;;9.27;7.15;;;23.10;58.50;;;;;;5113658;28;20477;-66
2023/08/14 04:45:21;;;;;;;14.50;11.32;;;23.10;58.50;;;;;;5113173;28;20462;-67
2023/08/14 04:47:47;;;;;;;6.85;5.55;;;23.20;58.60;;;;;;5113518;28;20028;-66
2023/08/14 04:50:13;;;;;;;6.47;5.15;;;23.20;58.60;;;;;;5112546;28;20110;-66
2023/08/14 04:52:38;;;;;;;5.78;4.75;;;23.30;58.60;;;;;;5111691;28;20461;-67
2023/08/14 04:55:05;;;;;;;5.68;4.28;;;23.30;58.60;;;;;;5113023;28;20027;-68
2023/08/14 04:57:31;;;;;;;5.80;4.55;;;23.30;58.50;;;;;;5113329;28;20027;-66
2023/08/14 04:59:57;;;;;;;5.07;4.28;;;23.30;58.60;;;;;;5112051;28;20081;-66
2023/08/14 05:02:23;;;;;;;5.22;4.00;;;23.40;58.60;;;;;;5113036;28;20477;-67
2023/08/14 05:04:48;;;;;;;6.28;4.40;;;23.40;58.60;;;;;;5113182;28;20035;-66
2023/08/14 05:07:14;;;;;;;5.40;4.18;;;23.50;58.70;;;;;;5112806;28;20485;-66
2023/08/14 05:09:40;;;;;;;4.75;4.25;;;23.50;58.70;;;;;;5113529;28;20047;-68
2023/08/14 05:12:06;;;;;;;4.88;4.30;;;23.50;58.70;;;;;;5113019;28;20047;-67
2023/08/14 05:14:31;;;;;;;9.13;8.13;;;23.50;58.70;;;;;;5111845;28;20088;-67
2023/08/14 05:16:57;;;;;;;6.43;5.15;;;23.50;58.80;;;;;;5113368;28;20051;-67
2023/08/14 05:19:23;;;;;;;5.68;5.05;;;23.60;58.90;;;;;;5112669;28;20038;-67
2023/08/14 05:21:49;;;;;;;7.85;4.60;;;23.60;58.90;;;;;;5113021;28;20107;-67
2023/08/14 05:24:15;;;;;;;6.63;4.43;;;23.60;58.90;;;;;;5111604;28;20031;-67
2023/08/14 05:26:41;;;;;;;5.30;4.28;;;23.70;59.00;;;;;;5116925;28;20034;-67
2023/08/14 05:29:06;;;;;;;5.35;4.13;;;23.70;59.00;;;;;;5116969;28;20031;-68
2023/08/14 05:31:32;;;;;;;4.63;4.00;;;23.70;59.00;;;;;;5117124;28;20016;-67
2023/08/14 05:33:58;;;;;;;5.63;4.00;;;23.80;59.00;;;;;;5116905;28;20118;-67
2023/08/14 05:36:23;;;;;;;5.22;4.18;;;23.80;59.00;;;;;;5116487;28;20102;-67
2023/08/14 05:38:49;;;;;;;5.40;4.20;;;23.80;59.00;;;;;;5116534;28;20453;-67
2023/08/14 05:41:15;;;;;;;8.57;4.60;;;23.90;59.00;;;;;;5116763;28;20023;-67
2023/08/14 05:43:41;;;;;;;4.68;4.15;;;23.90;59.00;;;;;;5116986;28;20092;-67
2023/08/14 05:46:06;;;;;;;4.55;3.85;;;24.00;59.00;;;;;;5115243;28;20531;-67
2023/08/14 05:48:32;;;;;;;5.97;3.92;;;24.00;59.00;;;;;;5116727;28;20079;-67
2023/08/14 05:50:58;;;;;;;4.63;3.80;;;24.10;59.00;;;;;;5115021;28;20054;-67
2023/08/14 05:53:23;;;;;;;4.55;3.50;;;24.10;58.90;;;;;;5115230;28;20122;-67
2023/08/14 05:55:49;;;;;;;3.80;3.40;;;24.20;58.90;;;;;;5115732;28;20023;-67
2023/08/14 05:58:14;;;;;;;3.47;3.15;;;24.20;58.90;;;;;;5116579;28;20032;-67
2023/08/14 06:00:40;;;;;;;5.13;3.70;;;24.20;58.80;;;;;;5116692;28;20035;-67
2023/08/14 06:03:08;;;;;;;5.25;3.80;;;24.30;58.90;;;;;;5115679;28;20039;-67
2023/08/14 06:05:34;;;;;;;4.57;4.05;;;24.30;58.90;;;;;;5116548;28;20046;-68
2023/08/14 06:08:00;;;;;;;5.43;3.97;;;24.30;58.90;;;;;;5115163;28;20028;-69
2023/08/14 06:10:25;;;;;;;5.15;3.80;;;24.40;59.00;;;;;;5114853;28;20493;-68
2023/08/14 06:12:51;;;;;;;4.85;3.70;;;24.40;58.90;;;;;;5115125;28;20094;-66
2023/08/14 06:15:21;;;;;;;4.35;3.55;;;24.50;59.00;;;;;;5115485;28;20469;-69
2023/08/14 06:17:48;;;;;;;5.70;4.10;;;24.50;58.90;;;;;;5115591;28;20514;-68
2023/08/14 06:20:14;;;;;;;6.40;3.70;;;24.60;58.90;;;;;;5115767;28;20035;-69
2023/08/14 06:22:41;;;;;;;3.60;3.30;;;24.60;58.90;;;;;;5116431;28;20031;-69
2023/08/14 06:25:07;;;;;;;4.45;3.30;;;24.70;58.80;;;;;;5114281;28;20461;-70
2023/08/14 06:27:34;;;;;;;5.90;3.75;;;24.70;58.70;;;;;;5114303;28;20027;-67
2023/08/14 06:30:00;;;;;;;4.25;3.33;;;24.70;58.60;;;;;;5115813;28;20069;-68
2023/08/14 06:32:25;;;;;;;5.40;3.78;;;24.70;58.60;;;;;;5115577;28;20385;-66
2023/08/14 06:34:51;;;;;;;6.97;3.78;;;24.70;58.60;;;;;;5115629;28;20055;-66
2023/08/14 06:37:17;;;;;;;5.03;3.60;;;24.70;58.60;;;;;;5113437;28;20027;-68
2023/08/14 06:39:43;;;;;;;4.63;3.80;;;24.80;58.50;;;;;;5115673;28;20020;-66
2023/08/14 06:42:08;;;;;;;4.00;3.58;;;24.80;58.60;;;;;;5114264;28;20034;-65
2023/08/14 06:44:34;;;;;;;4.63;3.53;;;24.80;58.70;;;;;;5115547;28;20028;-69
2023/08/14 06:47:00;;;;;;;4.88;3.50;;;24.90;58.70;;;;;;5115601;27;20035;-72
2023/08/14 06:49:27;;;;;;;5.82;3.30;;;24.90;58.70;;;;;;5115611;28;20027;-69
2023/08/14 06:51:53;;;;;;;6.15;3.40;;;24.90;58.60;;;;;;5113741;28;20392;-68
2023/08/14 06:54:18;;;;;;;4.70;3.42;;;25.00;58.60;;;;;;5114522;28;20035;-67
2023/08/14 06:56:44;;;;;;;4.25;3.45;;;25.00;58.60;;;;;;5112657;27;20062;-68
2023/08/14 06:59:10;;;;;;;6.47;3.20;;;25.00;59.00;;;;;;5113070;28;20051;-68
2023/08/14 07:01:35;;;;;;;5.13;2.97;;;25.10;58.40;;;;;;5113823;28;20118;-67
2023/08/14 07:04:02;;;;;;;4.07;3.10;;;25.10;58.30;;;;;;5111824;28;20037;-69
2023/08/14 07:06:27;;;;;;;4.05;3.10;;;25.20;58.30;;;;;;5107050;28;20036;-69
2023/08/14 07:08:53;;;;;;;5.72;2.90;;;25.20;58.00;;;;;;5114142;28;20020;-69
2023/08/14 07:11:19;;;;;;;3.83;3.00;;;25.20;57.90;;;;;;5114856;27;20549;-68
2023/08/14 07:13:44;;;;;;;3.67;2.92;;;25.30;57.80;;;;;;5115131;27;20119;-69
2023/08/14 07:16:10;;;;;;;3.20;2.90;;;25.30;57.70;;;;;;5113612;28;20028;-70
2023/08/14 07:18:36;;;;;;;3.78;2.80;;;25.30;57.60;;;;;;5112693;28;20084;-67
2023/08/14 07:21:02;;;;;;;5.50;2.65;;;25.40;57.60;;;;;;5118317;27;20038;-67
2023/08/14 07:23:27;;;;;;;3.00;2.45;;;25.40;57.60;;;;;;5111306;28;20032;-68
2023/08/14 07:25:57;;;;;;;5.10;2.80;;;25.50;57.50;;;;;;5112614;28;20035;-67
2023/08/14 07:28:23;;;;;;;6.97;3.20;;;25.50;57.40;;;;;;5111744;28;20065;-67
2023/08/14 07:30:49;;;;;;;3.63;2.58;;;25.50;57.20;;;;;;5111914;28;20051;-67
2023/08/14 07:33:15;;;;;;;3.78;2.80;;;25.50;57.20;;;;;;5114007;28;20039;-68
2023/08/14 07:35:41;;;;;;;4.78;3.17;;;25.60;57.40;;;;;;5113805;28;20129;-67
2023/08/14 07:38:07;;;;;;;3.85;2.80;;;25.60;57.50;;;;;;5112794;28;20036;-68
2023/08/14 07:40:33;;;;;;;4.07;2.53;;;25.60;57.40;;;;;;5111708;28;20032;-66
2023/08/14 07:42:59;;;;;;;3.05;2.40;;;25.60;57.40;;;;;;5112552;28;20036;-80
2023/08/14 07:45:24;;;;;;;2.90;2.13;;;25.60;56.90;;;;;;5113164;28;20427;-81
2023/08/14 07:47:50;;;;;;;2.60;2.40;;;25.60;56.70;;;;;;5112657;28;20031;-81
2023/08/14 07:50:16;;;;;;;2.90;2.20;;;25.70;56.80;;;;;;5114905;27;20107;-77
2023/08/14 07:52:41;;;;;;;3.22;2.50;;;25.70;56.80;;;;;;5114195;28;20027;-75
2023/08/14 07:55:07;;;;;;;2.90;2.58;;;25.70;56.70;;;;;;5111465;28;20039;-79
2023/08/14 07:57:33;;;;;;;2.53;2.22;;;25.70;56.50;;;;;;5117650;27;20088;-76
2023/08/14 07:59:58;;;;;;;3.08;2.10;;;25.70;56.30;;;;;;5112628;28;20032;-78
2023/08/14 08:02:24;;;;;;;2.20;1.95;;;25.80;56.40;;;;;;5113221;28;20043;-77
2023/08/14 08:04:50;;;;;;;2.13;1.92;;;25.80;56.30;;;;;;5113816;28;20050;-76
2023/08/14 08:07:16;;;;;;;4.75;2.47;;;25.80;56.10;;;;;;5111344;28;20049;-78
2023/08/14 08:09:41;;;;;;;2.65;2.22;;;25.80;55.80;;;;;;5112231;28;20045;-78
2023/08/14 08:12:08;;;;;;;4.43;2.28;;;25.80;55.80;;;;;;5110965;28;20028;-73
2023/08/14 08:14:34;;;;;;;4.47;2.15;;;25.80;55.80;;;;;;5113347;28;20039;-80
2023/08/14 08:17:00;;;;;;;5.47;3.50;;;25.80;55.70;;;;;;5112387;28;20051;-77
2023/08/14 08:19:26;;;;;;;4.35;2.40;;;25.90;55.60;;;;;;5110491;28;20059;-73
2023/08/14 08:21:52;;;;;;;2.78;2.20;;;25.90;55.50;;;;;;5111212;28;20087;-81
2023/08/14 08:24:18;;;;;;;3.22;2.00;;;26.00;55.50;;;;;;5114264;27;20051;-81
2023/08/14 08:26:44;;;;;;;2.88;1.92;;;26.00;54.90;;;;;;5113943;28;20027;-83
2023/08/14 08:29:10;;;;;;;3.70;2.20;;;26.00;54.80;;;;;;5115363;27;20083;-81
2023/08/14 08:31:35;;;;;;;4.85;2.20;;;26.00;54.70;;;;;;5112314;28;20058;-78
2023/08/14 08:34:01;;;;;;;4.55;1.90;;;26.10;54.70;;;;;;5113067;28;20043;-81
2023/08/14 08:36:27;;;;;;;4.60;1.90;;;26.10;54.70;;;;;;5112584;28;20058;-87
2023/08/14 08:38:52;;;;;;;6.03;1.92;;;26.10;54.70;;;;;;5112746;28;20072;-76
2023/08/14 08:41:25;;;;;;;1.80;1.70;;;26.10;54.70;;;;;;5113226;27;20077;-73
2023/08/14 08:44:15;;;;;;;1.95;1.75;;;26.20;54.80;;;;;;5112076;28;20027;-73
2023/08/14 08:47:01;;;;;;;4.03;1.63;;;26.20;54.70;;;;;;5105785;28;20061;-75
2023/08/14 08:49:27;;;;;;;4.03;2.00;;;26.20;54.40;;;;;;5107299;28;20485;-77
2023/08/14 08:51:54;;;;;;;2.40;2.10;;;26.20;54.50;;;;;;5112610;28;20024;-79
2023/08/14 08:54:20;;;;;;;2.03;1.50;;;26.20;54.00;;;;;;5111416;28;20040;-77
2023/08/14 08:56:46;;;;;;;3.50;1.90;;;26.20;54.20;;;;;;5117521;27;20477;-74
2023/08/14 08:59:12;;;;;;;2.53;1.92;;;26.20;54.30;;;;;;5134047;27;20034;-79
2023/08/14 09:01:40;;;;;;;2.35;2.03;;;26.20;54.30;;;;;;5114088;28;20032;-78
2023/08/14 09:04:06;;;;;;;6.18;3.20;;;26.20;54.30;;;;;;5113480;28;20027;-72
2023/08/14 09:06:31;;;;;;;2.75;2.10;;;26.20;54.10;;;;;;5111328;28;20036;-73
2023/08/14 09:08:57;;;;;;;3.05;1.90;;;26.20;54.00;;;;;;5106314;28;20035;-72
2023/08/14 09:11:24;;;;;;;2.70;1.90;;;26.30;53.60;;;;;;5111593;28;20115;-73
2023/08/14 09:13:50;;;;;;;2.28;2.00;;;26.30;53.70;;;;;;5112995;28;20035;-72
2023/08/14 09:16:16;;;;;;;3.53;1.88;;;26.30;53.70;;;;;;5111779;28;20390;-72
2023/08/14 09:18:43;;;;;;;3.03;1.42;;;26.30;53.80;;;;;;5112654;28;20026;-72
2023/08/14 09:21:09;;;;;;;3.40;1.88;;;26.30;53.70;;;;;;5113028;28;20028;-71
2023/08/14 09:23:37;;;;;;;2.53;1.80;;;26.30;53.70;;;;;;5110990;28;20039;-74
2023/08/14 09:26:03;;;;;;;1.80;1.70;;;26.30;53.70;;;;;;5113494;28;20038;-72
2023/08/14 09:28:29;;;;;;;1.92;1.83;;;26.30;53.40;;;;;;5133577;28;20023;-70
2023/08/14 09:31:05;;;;;;;2.13;1.92;;;26.30;53.40;;;;;;5124080;28;20427;-71
2023/08/14 09:33:32;;;;;;;2.83;2.53;;;26.30;53.30;;;;;;5111135;28;20035;-81
2023/08/14 09:35:58;;;;;;;3.08;2.20;;;26.30;53.70;;;;;;5112763;28;20030;-72
2023/08/14 09:38:23;;;;;;;2.72;2.10;;;26.40;53.80;;;;;;5111669;28;20032;-72
2023/08/14 09:40:54;;;;;;;3.28;2.55;;;26.40;53.60;;;;;;5112576;28;20073;-75
2023/08/14 09:43:20;;;;;;;3.78;2.28;;;26.40;53.70;;;;;;5119832;28;20057;-74
2023/08/14 09:45:47;;;;;;;4.72;2.70;;;26.40;53.80;;;;;;5112695;28;20463;-70
2023/08/14 09:48:12;;;;;;;5.55;2.33;;;26.50;53.90;;;;;;5110513;28;20028;-76
2023/08/14 09:50:38;;;;;;;3.03;2.53;;;26.50;53.90;;;;;;5111945;28;20462;-72
2023/08/14 09:53:04;;;;;;;2.97;2.38;;;26.50;53.90;;;;;;5110165;28;20495;-73
2023/08/14 09:55:33;;;;;;;3.50;2.33;;;26.50;54.10;;;;;;5111790;28;20035;-70
2023/08/14 09:57:59;;;;;;;3.28;2.60;;;26.60;54.10;;;;;;5119085;27;20020;-74
2023/08/14 10:00:29;;;;;;;2.72;2.15;;;26.60;53.90;;;;;;5111649;28;20024;-74
2023/08/14 10:02:56;;;;;;;2.95;2.05;;;26.70;53.90;;;;;;5110765;28;20027;-76
2023/08/14 10:05:24;;;;;;;2.55;2.30;;;26.70;53.90;;;;;;5109768;28;20074;-73
2023/08/14 10:07:53;;;;;;;2.20;2.00;;;26.80;53.80;;;;;;5109928;28;20084;-80
2023/08/14 10:10:20;;;;;;;3.13;2.22;;;26.90;53.80;;;;;;5110191;28;20055;-80
2023/08/14 10:12:56;;;;;;;2.78;2.00;;;26.90;53.80;;;;;;5115138;28;20023;-77
2023/08/14 10:15:27;;;;;;;2.78;2.25;;;26.90;53.80;;;;;;5115173;28;20050;-78
2023/08/14 10:17:56;;;;;;;2.65;1.98;;;26.90;53.70;;;;;;5114727;28;20530;-75
2023/08/14 10:20:23;;;;;;;3.60;2.40;;;27.00;53.70;;;;;;5114191;28;20050;-79
2023/08/14 10:22:52;;;;;;;2.15;1.95;;;27.00;53.70;;;;;;5113520;28;20114;-78
2023/08/14 10:25:19;;;;;;;3.90;2.15;;;27.00;53.50;;;;;;5113398;28;20107;-72
2023/08/14 10:27:46;;;;;;;2.70;1.80;;;27.10;53.40;;;;;;5114252;28;20019;-73
2023/08/14 10:30:12;;;;;;;2.55;1.90;;;27.10;53.30;;;;;;5113195;27;20130;-74
2023/08/14 10:32:39;;;;;;;2.50;2.10;;;27.10;53.10;;;;;;5114696;28;20492;-74
2023/08/14 10:35:05;;;;;;;2.20;1.98;;;27.20;53.10;;;;;;5117343;27;20043;-75
2023/08/14 10:37:42;;;;;;;3.13;1.90;;;27.20;52.90;;;;;;5113955;28;20028;-75
2023/08/14 10:40:22;;;;;;;3.28;1.98;;;27.30;52.80;;;;;;5114408;28;20019;-79
2023/08/14 10:42:52;;;;;;;4.32;2.00;;;27.30;52.70;;;;;;5115561;28;20080;-83
2023/08/14 10:45:22;;;;;;;3.35;2.10;;;27.40;52.70;;;;;;5114534;28;20027;-74
2023/08/14 10:47:49;;;;;;;1.92;1.83;;;27.40;52.60;;;;;;5115800;27;20031;-75
2023/08/14 10:50:17;;;;;;;3.75;2.05;;;27.40;52.50;;;;;;5114401;28;20038;-77
2023/08/14 10:52:52;;;;;;;2.33;2.08;;;27.40;52.30;;;;;;5112256;28;20032;-75
2023/08/14 10:55:25;;;;;;;2.22;2.03;;;27.50;52.10;;;;;;5112239;28;20024;-77
2023/08/14 10:57:53;;;;;;;2.88;1.88;;;27.40;52.10;;;;;;5107955;27;20106;-82
2023/08/14 11:00:25;;;;;;;1.73;1.63;;;27.50;52.20;;;;;;5112975;28;20088;-82
2023/08/14 11:03:08;;;;;;;2.22;1.77;;;27.50;52.00;;;;;;5112926;28;20484;-71
2023/08/14 11:05:38;;;;;;;2.70;2.05;;;27.50;52.10;;;;;;5118218;27;20028;-77
2023/08/14 11:08:06;;;;;;;4.57;2.10;;;27.50;52.20;;;;;;5109348;28;20389;-77
2023/08/14 11:10:33;;;;;;;2.05;1.83;;;27.50;52.00;;;;;;5113861;28;20054;-77
2023/08/14 11:12:59;;;;;;;4.45;1.98;;;27.60;51.90;;;;;;5113663;28;20027;-78
2023/08/14 11:15:24;;;;;;;3.25;1.65;;;27.60;51.90;;;;;;5112182;28;20419;-78
2023/08/14 11:17:50;;;;;;;2.35;1.80;;;27.60;51.90;;;;;;5112323;28;20031;-80
2023/08/14 11:20:16;;;;;;;2.67;1.90;;;27.60;52.00;;;;;;5110103;28;20023;-76
2023/08/14 11:22:45;;;;;;;2.63;2.33;;;27.70;52.10;;;;;;5113156;28;20054;-76
2023/08/14 11:25:17;;;;;;;2.33;2.03;;;27.70;52.10;;;;;;5111434;28;20439;-76
2023/08/14 11:27:49;;;;;;;2.65;2.30;;;27.70;52.20;;;;;;5112956;28;20438;-78
2023/08/14 11:30:15;;;;;;;2.08;1.77;;;27.70;52.20;;;;;;5112121;28;20436;-74
2023/08/14 11:32:41;;;;;;;4.05;2.10;;;27.70;52.40;;;;;;5111732;28;20032;-74
2023/08/14 11:35:08;;;;;;;4.78;2.00;;;27.70;52.50;;;;;;5114817;27;20121;-78
2023/08/14 11:37:34;;;;;;;2.25;2.05;;;27.70;52.70;;;;;;5112205;28;20031;-74
2023/08/14 11:40:07;;;;;;;3.58;1.92;;;27.60;52.60;;;;;;5113311;28;20571;-76
2023/08/14 11:42:33;;;;;;;2.42;1.80;;;27.70;52.40;;;;;;5112686;28;20452;-73
2023/08/14 11:45:03;;;;;;;4.70;2.00;;;27.70;52.40;;;;;;5113760;28;20530;-78
2023/08/14 11:47:37;;;;;;;4.80;2.10;;;27.70;52.50;;;;;;5104517;28;20031;-75
2023/08/14 11:50:04;;;;;;;4.60;2.20;;;27.70;52.40;;;;;;5111714;28;20050;-71
2023/08/14 11:52:30;;;;;;;3.13;1.75;;;27.70;52.50;;;;;;5114099;28;20488;-73
2023/08/14 11:54:57;;;;;;;4.07;2.00;;;27.80;52.60;;;;;;5110186;28;20118;-72
2023/08/14 11:57:28;;;;;;;5.25;2.10;;;27.80;52.70;;;;;;5114483;27;20592;-86
2023/08/14 11:59:56;;;;;;;6.32;2.53;;;27.70;52.70;;;;;;5113667;27;20036;-87
2023/08/14 12:02:26;;;;;;;5.32;1.90;;;27.70;52.70;;;;;;5113854;28;20035;-85
2023/08/14 12:04:57;;;;;;;2.92;2.10;;;27.70;52.60;;;;;;5113459;28;20168;-81
2023/08/14 12:07:26;;;;;;;4.10;1.92;;;27.80;52.70;;;;;;5112895;28;20039;-84
2023/08/14 12:09:54;;;;;;;4.32;2.00;;;27.80;52.60;;;;;;5114128;28;20374;-82
2023/08/14 12:12:20;;;;;;;1.92;1.75;;;27.80;52.60;;;;;;5113841;28;20031;-84
2023/08/14 12:14:48;;;;;;;2.20;2.00;;;27.80;52.50;;;;;;5112791;28;20422;-84
2023/08/14 12:17:15;;;;;;;3.65;2.15;;;27.90;52.70;;;;;;5114562;28;20072;-88
2023/08/14 12:19:42;;;;;;;2.33;1.90;;;27.90;52.70;;;;;;5112168;28;20028;-82
2023/08/14 12:22:08;;;;;;;4.30;2.00;;;27.90;52.60;;;;;;5111852;28;20028;-86
2023/08/14 12:24:38;;;;;;;2.05;1.85;;;27.90;52.60;;;;;;5112838;28;20031;-80
2023/08/14 12:27:12;;;;;;;6.97;2.17;;;27.90;52.50;;;;;;5114161;28;20030;-80
2023/08/14 12:29:38;;;;;;;;;;;28.00;52.60;;;;;;5112446;28;20038;-76
2023/08/14 12:32:05;;;;;;;5.60;1.90;;;28.00;52.70;;;;;;5113701;28;20249;-81
2023/08/14 12:34:30;;;;;;;3.15;1.55;;;28.00;52.60;;;;;;5112892;28;20049;-79
2023/08/14 12:36:56;;;;;;;4.85;2.33;;;28.00;52.60;;;;;;5113146;28;20023;-77
2023/08/14 12:39:21;;;;;;;3.35;1.80;;;28.00;52.70;;;;;;5113244;28;20477;-82
2023/08/14 12:41:47;;;;;;;3.03;1.77;;;28.00;52.70;;;;;;5112799;28;20035;-81
2023/08/14 12:44:13;;;;;;;6.28;2.00;;;28.00;53.40;;;;;;5113860;28;20039;-83
2023/08/14 12:46:39;;;;;;;2.00;1.85;;;28.00;52.80;;;;;;5113474;27;20450;-79